This is the latest recevied weather packets stored in our database for station/object JG6YPS-13. If no packets are shown the sender has not sent any weather packets the latest 10 day(s).
| Time | Temp. | Humidity | Pressure | Rain* | Wind** | Luminosity | Snow |
|---|---|---|---|---|---|---|---|
| 1777617686 | 19.44° C | 56% | 1009.5 hPa | 0 mm | - | - | - |
| 1777617086 | 19.44° C | 56% | 1009.6 hPa | 0 mm | - | - | - |
| 1777616487 | 20° C | 56% | 1009.7 hPa | 0 mm | - | - | - |
| 1777615887 | 19.44° C | 53% | 1009.6 hPa | 0 mm | - | - | - |
| 1777615287 | 20° C | 54% | 1009.7 hPa | 0 mm | - | - | - |
| 1777614688 | 18.89° C | 54% | 1009.7 hPa | 0 mm | - | - | - |
| 1777614088 | 18.89° C | 53% | 1009.6 hPa | 0 mm | - | - | - |
| 1777613489 | 18.89° C | 53% | 1009.8 hPa | 0 mm | - | - | - |
| 1777612889 | 18.89° C | 53% | 1009.9 hPa | 0 mm | - | - | - |
| 1777612289 | 20° C | 50% | 1010.1 hPa | 0 mm | - | - | - |
| 1777611690 | 20° C | 51% | 1010.2 hPa | 0 mm | - | - | - |
| 1777611090 | 19.44° C | 50% | 1010.1 hPa | 0 mm | - | - | - |
| 1777610490 | 19.44° C | 50% | 1010 hPa | 0 mm | - | - | - |
| 1777609890 | 20° C | 48% | 1010 hPa | 0 mm | - | - | - |
| 1777609290 | 21.67° C | 47% | 1010.1 hPa | 0 mm | - | - | - |
| 1777608690 | 21.67° C | 46% | 1009.9 hPa | 0 mm | - | - | - |
| 1777608090 | 21.67° C | 48% | 1010.1 hPa | 0 mm | - | - | - |
| 1777607490 | 21.67° C | 47% | 1010.1 hPa | 0 mm | - | - | - |
| 1777606890 | 20° C | 48% | 1010.2 hPa | 0 mm | - | - | - |
| 1777606290 | 21.11° C | 46% | 1010.3 hPa | 0 mm | - | - | - |
| 1777605690 | 20.56° C | 47% | 1010.5 hPa | 0 mm | - | - | - |
| 1777605090 | 20.56° C | 46% | 1010.7 hPa | 0 mm | - | - | - |
| 1777604490 | 18.89° C | 49% | 1010.8 hPa | 0 mm | - | - | - |
| 1777603890 | 18.33° C | 47% | 1010.8 hPa | 0 mm | - | - | - |
| 1777603291 | 20° C | 45% | 1010.7 hPa | 0 mm | - | - | - |
* Rain latest hour (hover to see other rain measurements)
** Current wind speed in m/s (hover to see current wind gust speed)